Time;durP1;ratioP1;P1;durP2;ratioP2;P2;SDS_P1;SDS_P2;PMS_P1;PMS_P2;Temp;Humidity;BMP_temperature;BMP_pressure;BME280_temperature;BME280_humidity;BME280_pressure;Samples;Min_cycle;Max_cycle;Signal;HPM_P1;HPM_P2
2023/04/23 00:02:12;;;;;;;68.13;35.53;;;8.10;99.90;;;;;;5173029;27;20030;-52
2023/04/23 00:04:38;;;;;;;83.72;36.65;;;8.10;99.90;;;;;;5172277;27;20038;-53
2023/04/23 00:07:04;;;;;;;84.10;38.80;;;8.10;99.90;;;;;;5172124;27;20117;-50
2023/04/23 00:09:31;;;;;;;76.80;37.95;;;8.00;99.90;;;;;;5172154;27;20121;-51
2023/04/23 00:11:58;;;;;;;88.60;41.42;;;8.10;99.90;;;;;;5173178;27;20041;-56
2023/04/23 00:14:24;;;;;;;106.70;43.92;;;8.10;99.90;;;;;;5172099;27;20045;-54
2023/04/23 00:16:51;;;;;;;109.45;45.17;;;8.10;99.90;;;;;;5172155;27;20430;-50
2023/04/23 00:19:16;;;;;;;130.70;47.88;;;8.00;99.90;;;;;;5171086;27;20074;-56
2023/04/23 00:21:42;;;;;;;127.22;47.72;;;8.00;99.90;;;;;;5172162;27;20045;-50
2023/04/23 00:24:08;;;;;;;141.18;51.22;;;8.00;99.90;;;;;;5171569;27;20030;-51
2023/04/23 00:26:34;;;;;;;126.78;48.97;;;8.20;99.90;;;;;;5172916;27;20034;-48
2023/04/23 00:28:59;;;;;;;139.27;51.38;;;8.10;99.90;;;;;;5170584;27;20042;-49
2023/04/23 00:31:26;;;;;;;134.90;50.50;;;8.10;99.90;;;;;;5171985;27;20514;-55
2023/04/23 00:33:52;;;;;;;147.98;54.72;;;8.10;99.90;;;;;;5133995;27;20504;-51
2023/04/23 00:36:18;;;;;;;146.25;51.20;;;8.20;99.90;;;;;;5153108;27;20041;-54
2023/04/23 00:38:44;;;;;;;145.93;53.97;;;8.20;99.90;;;;;;5170881;27;20122;-50
2023/04/23 00:41:10;;;;;;;140.35;52.28;;;8.20;99.90;;;;;;5172181;27;20054;-53
2023/04/23 00:43:36;;;;;;;146.13;52.55;;;8.10;99.90;;;;;;5169879;27;20524;-53
2023/04/23 00:46:02;;;;;;;145.65;54.10;;;8.20;99.90;;;;;;5171534;27;20026;-53
2023/04/23 00:48:28;;;;;;;153.20;55.85;;;8.10;99.90;;;;;;5171284;27;20106;-49
2023/04/23 00:51:05;;;;;;;160.05;56.22;;;8.20;99.90;;;;;;5139593;27;20046;-54
2023/04/23 00:53:32;;;;;;;147.93;53.42;;;8.20;99.90;;;;;;5169368;27;20042;-55
2023/04/23 00:56:00;;;;;;;160.77;57.30;;;8.20;99.90;;;;;;5172310;27;20042;-50
2023/04/23 00:58:26;;;;;;;178.27;59.67;;;8.10;99.90;;;;;;5171382;27;20034;-55
2023/04/23 01:00:52;;;;;;;159.65;61.13;;;8.10;99.90;;;;;;5171761;27;20086;-53
2023/04/23 01:03:20;;;;;;;161.85;58.10;;;8.20;99.90;;;;;;5171540;27;20048;-56
2023/04/23 01:05:48;;;;;;;185.27;63.00;;;8.10;99.90;;;;;;5171098;27;20384;-50
2023/04/23 01:08:16;;;;;;;182.43;63.97;;;8.20;99.90;;;;;;5171830;27;20038;-50
2023/04/23 01:10:46;;;;;;;185.82;66.97;;;8.10;99.90;;;;;;5170819;27;20541;-54
2023/04/23 01:13:14;;;;;;;186.48;66.15;;;8.20;99.90;;;;;;5171246;27;20077;-56
2023/04/23 01:15:41;;;;;;;194.45;65.72;;;8.20;99.90;;;;;;5169263;27;20121;-54
2023/04/23 01:18:07;;;;;;;182.90;64.55;;;8.20;99.90;;;;;;5174003;27;20086;-50
2023/04/23 01:20:34;;;;;;;172.38;61.95;;;8.10;99.90;;;;;;5175031;27;20038;-53
2023/04/23 01:23:01;;;;;;;194.35;67.05;;;8.20;99.90;;;;;;5175542;27;20038;-51
2023/04/23 01:25:27;;;;;;;181.00;65.45;;;8.20;99.90;;;;;;5141062;27;20107;-49
2023/04/23 01:27:52;;;;;;;170.63;64.72;;;8.10;99.90;;;;;;5176553;27;20030;-56
2023/04/23 01:30:18;;;;;;;177.68;64.85;;;8.20;99.90;;;;;;5174993;27;20062;-52
2023/04/23 01:32:45;;;;;;;182.75;62.30;;;8.10;99.90;;;;;;5175407;27;20504;-49
2023/04/23 01:35:12;;;;;;;179.45;62.95;;;8.20;99.90;;;;;;5175617;27;20042;-56
2023/04/23 01:37:38;;;;;;;186.38;65.18;;;8.20;99.90;;;;;;5174472;27;20049;-54
2023/04/23 01:40:05;;;;;;;181.23;62.78;;;8.10;99.90;;;;;;5174282;27;20422;-54
2023/04/23 01:42:31;;;;;;;180.23;67.25;;;8.10;99.90;;;;;;5175500;27;20050;-50
2023/04/23 01:44:57;;;;;;;172.68;64.22;;;8.20;99.90;;;;;;5142241;27;20386;-52
2023/04/23 01:47:23;;;;;;;180.40;64.50;;;8.10;99.90;;;;;;5174885;27;20032;-47
2023/04/23 01:49:48;;;;;;;187.38;67.50;;;8.00;99.90;;;;;;5172537;27;20118;-51
2023/04/23 01:52:14;;;;;;;175.63;61.95;;;8.10;99.90;;;;;;5174700;27;20065;-52
2023/04/23 01:54:40;;;;;;;183.88;64.78;;;8.10;99.90;;;;;;5174999;27;20038;-53
2023/04/23 01:57:05;;;;;;;180.25;62.88;;;8.10;99.90;;;;;;5146792;27;20035;-53
2023/04/23 01:59:31;;;;;;;168.50;61.80;;;8.00;99.90;;;;;;5162929;27;20034;-52
2023/04/23 02:01:57;;;;;;;181.50;64.38;;;8.00;99.90;;;;;;5175651;27;20083;-51
2023/04/23 02:04:22;;;;;;;170.23;61.78;;;7.90;99.90;;;;;;5173754;27;20030;-49
2023/04/23 02:06:50;;;;;;;162.10;64.25;;;7.90;99.90;;;;;;5132485;27;20054;-50
2023/04/23 02:09:16;;;;;;;150.15;59.65;;;8.00;99.90;;;;;;5174342;27;20038;-49
2023/04/23 02:11:41;;;;;;;173.93;64.05;;;7.90;99.90;;;;;;5174752;27;20049;-50
2023/04/23 02:14:09;;;;;;;186.90;65.70;;;7.90;99.90;;;;;;5172057;27;20038;-50
2023/04/23 02:16:35;;;;;;;193.05;65.57;;;7.90;99.90;;;;;;5176310;27;20038;-52
2023/04/23 02:19:00;;;;;;;191.15;66.32;;;7.80;99.90;;;;;;5176361;27;20031;-53
2023/04/23 02:21:26;;;;;;;174.00;66.15;;;7.80;99.90;;;;;;5172718;27;20465;-49
2023/04/23 02:23:53;;;;;;;176.63;63.78;;;7.90;99.90;;;;;;5173975;27;20042;-52
2023/04/23 02:26:18;;;;;;;171.05;60.95;;;7.80;99.90;;;;;;5150016;27;20430;-49
2023/04/23 02:28:45;;;;;;;183.00;64.05;;;7.90;99.90;;;;;;5173872;27;20038;-55
2023/04/23 02:31:10;;;;;;;198.00;68.93;;;7.80;99.90;;;;;;5174071;27;20451;-53
2023/04/23 02:33:36;;;;;;;184.23;63.85;;;7.90;99.90;;;;;;5173022;27;20122;-49
2023/04/23 02:36:02;;;;;;;183.32;64.88;;;7.70;99.90;;;;;;5173074;27;20049;-55
2023/04/23 02:38:28;;;;;;;200.65;65.82;;;7.80;99.90;;;;;;5173970;27;20402;-52
2023/04/23 02:40:53;;;;;;;192.90;66.65;;;7.80;99.90;;;;;;5173684;27;20063;-54
2023/04/23 02:43:19;;;;;;;196.88;65.60;;;7.80;99.90;;;;;;5140389;27;20043;-54
2023/04/23 02:45:45;;;;;;;169.45;64.72;;;7.80;99.90;;;;;;5155218;27;20045;-55
2023/04/23 02:48:11;;;;;;;199.68;65.38;;;7.80;99.90;;;;;;5141555;27;20042;-51
2023/04/23 02:50:39;;;;;;;197.25;68.47;;;7.70;99.90;;;;;;5174519;27;20045;-51
2023/04/23 02:53:05;;;;;;;192.15;66.53;;;7.70;99.90;;;;;;5172692;27;20034;-51
2023/04/23 02:55:31;;;;;;;205.45;69.45;;;7.70;99.90;;;;;;5174252;27;20030;-53
2023/04/23 02:57:57;;;;;;;219.57;70.20;;;7.80;99.90;;;;;;5173296;27;20038;-53
2023/04/23 03:00:24;;;;;;;201.68;67.80;;;7.80;99.90;;;;;;5173842;27;20112;-52
2023/04/23 03:02:50;;;;;;;200.38;70.28;;;7.80;99.90;;;;;;5172360;27;20037;-52
2023/04/23 03:05:15;;;;;;;215.05;68.53;;;7.90;99.90;;;;;;5173184;27;20023;-54
2023/04/23 03:07:41;;;;;;;213.02;67.90;;;7.80;99.90;;;;;;5173014;27;20079;-55
2023/04/23 03:10:07;;;;;;;194.95;65.28;;;7.90;99.90;;;;;;5173069;27;20120;-54
2023/04/23 03:12:33;;;;;;;210.02;69.68;;;7.90;99.90;;;;;;5173375;27;20113;-52
2023/04/23 03:14:59;;;;;;;215.82;66.10;;;7.90;99.90;;;;;;5173870;27;20586;-51
2023/04/23 03:17:25;;;;;;;234.18;69.97;;;7.90;99.90;;;;;;5173611;27;20034;-52
2023/04/23 03:19:50;;;;;;;241.93;66.55;;;7.90;99.90;;;;;;5141079;27;20045;-52
2023/04/23 03:22:16;;;;;;;255.57;63.40;;;7.80;99.90;;;;;;5168934;27;20393;-52
2023/04/23 03:24:42;;;;;;;228.02;63.20;;;7.90;99.90;;;;;;5173193;27;20062;-48
2023/04/23 03:27:07;;;;;;;200.57;60.83;;;7.70;99.90;;;;;;5172371;27;20042;-51
2023/04/23 03:29:33;;;;;;;252.02;60.20;;;7.80;99.90;;;;;;5173405;27;20121;-50
2023/04/23 03:31:59;;;;;;;212.98;61.65;;;7.80;99.90;;;;;;5171921;27;20034;-51
2023/04/23 03:34:24;;;;;;;247.10;61.05;;;7.70;99.90;;;;;;5173114;27;20049;-50
2023/04/23 03:36:50;;;;;;;163.75;60.15;;;8.00;99.90;;;;;;5172616;27;20057;-55
2023/04/23 03:39:16;;;;;;;205.30;62.45;;;7.70;99.90;;;;;;5145301;27;20370;-51
2023/04/23 03:41:42;;;;;;;161.60;57.92;;;7.70;99.90;;;;;;5160860;27;20047;-53
2023/04/23 03:44:08;;;;;;;179.48;60.20;;;7.70;99.90;;;;;;5143776;27;20070;-56
2023/04/23 03:46:33;;;;;;;161.77;56.63;;;7.80;99.90;;;;;;5160445;27;20376;-51
2023/04/23 03:49:00;;;;;;;177.27;60.45;;;7.70;99.90;;;;;;5173003;27;20125;-55
2023/04/23 03:51:26;;;;;;;212.95;61.97;;;7.90;99.90;;;;;;5172189;27;20034;-55
2023/04/23 03:53:51;;;;;;;174.48;62.13;;;7.90;99.90;;;;;;5173314;27;20038;-50
2023/04/23 03:56:17;;;;;;;185.77;62.75;;;7.90;99.90;;;;;;5171817;27;20062;-51
2023/04/23 03:58:43;;;;;;;174.10;62.03;;;7.90;99.90;;;;;;5172862;27;20034;-52
2023/04/23 04:01:08;;;;;;;191.18;61.47;;;7.80;99.90;;;;;;5171485;27;20042;-52
2023/04/23 04:03:35;;;;;;;182.90;60.90;;;7.80;99.90;;;;;;5172801;27;20038;-52
2023/04/23 04:06:01;;;;;;;210.60;65.43;;;7.90;99.90;;;;;;5172375;27;20027;-50
2023/04/23 04:08:28;;;;;;;185.27;63.72;;;7.80;99.90;;;;;;5172227;27;20034;-55
2023/04/23 04:10:54;;;;;;;186.70;63.20;;;7.90;99.90;;;;;;5171728;27;20508;-51
2023/04/23 04:13:20;;;;;;;191.50;66.78;;;7.90;99.90;;;;;;5131956;27;20042;-48
2023/04/23 04:15:46;;;;;;;211.48;67.38;;;7.80;99.90;;;;;;5160714;27;20645;-53
2023/04/23 04:18:12;;;;;;;190.35;66.07;;;8.00;99.90;;;;;;5172418;27;20065;-51
2023/04/23 04:20:38;;;;;;;223.45;71.55;;;7.90;99.90;;;;;;5171062;27;20034;-53
2023/04/23 04:23:03;;;;;;;244.25;74.97;;;7.90;99.90;;;;;;5171754;27;20042;-54
2023/04/23 04:25:29;;;;;;;229.07;69.93;;;8.00;99.90;;;;;;5137734;27;20037;-48
2023/04/23 04:27:56;;;;;;;229.98;75.18;;;8.10;99.90;;;;;;5130245;27;20375;-55
2023/04/23 04:30:23;;;;;;;205.95;70.93;;;8.10;99.90;;;;;;5159325;27;20042;-52
2023/04/23 04:32:49;;;;;;;237.43;74.93;;;8.20;99.90;;;;;;5171709;27;20038;-52
2023/04/23 04:35:15;;;;;;;249.02;78.38;;;8.20;99.90;;;;;;5171193;27;20042;-53
2023/04/23 04:37:43;;;;;;;228.05;75.18;;;8.10;99.90;;;;;;5171312;27;20381;-53
2023/04/23 04:40:10;;;;;;;221.93;75.07;;;8.20;99.90;;;;;;5135795;27;20394;-54
2023/04/23 04:42:38;;;;;;;219.75;75.43;;;8.20;99.90;;;;;;5131837;27;20610;-55
2023/04/23 04:45:04;;;;;;;219.23;73.88;;;8.40;99.90;;;;;;5133684;27;20078;-51
2023/04/23 04:47:31;;;;;;;225.85;71.90;;;8.30;99.90;;;;;;5171477;27;20040;-55
2023/04/23 04:49:58;;;;;;;197.95;71.18;;;8.30;99.90;;;;;;5171274;27;20034;-50
2023/04/23 04:52:24;;;;;;;211.70;72.03;;;8.30;99.90;;;;;;5142821;27;20125;-51
2023/04/23 04:54:50;;;;;;;224.07;74.30;;;8.40;99.90;;;;;;5158847;27;20121;-55
2023/04/23 04:57:15;;;;;;;211.40;71.13;;;8.40;99.90;;;;;;5171096;27;20469;-51
2023/04/23 04:59:41;;;;;;;203.77;70.05;;;8.40;99.90;;;;;;5171979;27;20042;-51
2023/04/23 05:02:07;;;;;;;198.57;68.93;;;8.40;99.90;;;;;;5170336;27;20034;-48
2023/04/23 05:04:33;;;;;;;199.35;69.57;;;8.50;99.90;;;;;;5170834;27;20130;-52
2023/04/23 05:06:58;;;;;;;194.82;70.07;;;8.40;99.90;;;;;;5172363;27;20117;-52
2023/04/23 05:09:24;;;;;;;196.35;65.57;;;8.50;99.90;;;;;;5173196;27;20131;-54
2023/04/23 05:11:50;;;;;;;199.30;69.88;;;8.50;99.90;;;;;;5168883;27;20121;-52
2023/04/23 05:14:16;;;;;;;201.13;70.13;;;8.40;99.90;;;;;;5170126;27;20121;-56
2023/04/23 05:16:42;;;;;;;197.57;71.90;;;8.50;99.90;;;;;;5169735;27;20059;-53
2023/04/23 05:19:08;;;;;;;200.88;71.82;;;8.40;99.90;;;;;;5171967;27;20030;-55
2023/04/23 05:21:34;;;;;;;178.27;67.70;;;8.70;99.90;;;;;;5171039;27;20086;-49
2023/04/23 05:24:00;;;;;;;194.75;69.97;;;8.60;99.90;;;;;;5113135;27;20474;-53
2023/04/23 05:26:25;;;;;;;183.68;66.57;;;8.70;99.90;;;;;;5157857;27;20529;-54
2023/04/23 05:28:51;;;;;;;198.90;69.93;;;8.70;99.90;;;;;;5145993;27;20094;-52
2023/04/23 05:31:17;;;;;;;195.80;68.50;;;8.80;99.90;;;;;;5171398;27;20384;-50
2023/04/23 05:33:43;;;;;;;176.05;63.92;;;8.60;99.90;;;;;;5139338;27;20536;-50
2023/04/23 05:36:09;;;;;;;200.55;68.07;;;8.90;99.90;;;;;;5171327;27;20484;-56
2023/04/23 05:38:35;;;;;;;168.43;65.00;;;8.80;99.90;;;;;;5170162;27;20045;-54
2023/04/23 05:41:01;;;;;;;161.57;64.18;;;8.90;99.90;;;;;;5169717;27;20549;-51
2023/04/23 05:43:26;;;;;;;157.38;62.13;;;8.80;99.90;;;;;;5170205;27;20033;-53
2023/04/23 05:45:52;;;;;;;153.73;60.55;;;8.90;99.90;;;;;;5171702;27;20083;-52
2023/04/23 05:48:18;;;;;;;157.80;60.90;;;9.00;99.90;;;;;;5169672;27;20035;-54
2023/04/23 05:50:43;;;;;;;142.27;56.25;;;9.00;99.90;;;;;;5171390;27;20034;-53
2023/04/23 05:53:09;;;;;;;130.68;54.30;;;8.90;99.90;;;;;;5172798;27;20077;-52
2023/04/23 05:55:35;;;;;;;143.35;57.25;;;8.90;99.90;;;;;;5172698;27;20090;-52
2023/04/23 05:58:01;;;;;;;143.20;59.28;;;9.00;99.90;;;;;;5136020;27;20493;-53
2023/04/23 06:00:27;;;;;;;141.23;55.90;;;8.90;99.90;;;;;;5140084;27;20137;-51
2023/04/23 06:02:53;;;;;;;132.00;56.08;;;9.00;99.90;;;;;;5160114;27;20434;-55
2023/04/23 06:05:19;;;;;;;148.73;57.67;;;9.20;99.90;;;;;;5175169;27;20028;-52
2023/04/23 06:07:45;;;;;;;136.75;57.38;;;9.20;99.90;;;;;;5176411;27;20074;-54
2023/04/23 06:10:11;;;;;;;123.80;54.90;;;9.30;99.90;;;;;;5176667;27;20083;-53
2023/04/23 06:12:40;;;;;;;130.88;55.17;;;9.30;99.90;;;;;;5171532;27;20041;-54
2023/04/23 06:15:07;;;;;;;122.55;54.38;;;9.30;99.90;;;;;;5174813;27;20042;-55
2023/04/23 06:17:37;;;;;;;125.72;54.70;;;9.50;99.90;;;;;;5174397;27;20488;-55
2023/04/23 06:20:04;;;;;;;121.65;53.95;;;9.50;99.90;;;;;;5175301;27;20042;-54
2023/04/23 06:22:30;;;;;;;116.30;54.92;;;9.50;99.90;;;;;;5176498;27;20083;-50
2023/04/23 06:24:56;;;;;;;114.18;53.70;;;9.60;99.90;;;;;;5175372;27;20102;-54
2023/04/23 06:27:21;;;;;;;118.22;54.35;;;9.70;99.90;;;;;;5173565;27;20042;-49
2023/04/23 06:29:47;;;;;;;110.30;53.55;;;9.70;99.90;;;;;;5172383;27;20039;-50
2023/04/23 06:32:13;;;;;;;102.78;50.05;;;9.80;99.90;;;;;;5174483;27;20030;-52
2023/04/23 06:34:38;;;;;;;104.18;49.20;;;9.80;99.90;;;;;;5170774;27;20041;-53
2023/04/23 06:37:04;;;;;;;96.80;49.33;;;9.90;99.90;;;;;;5174861;27;20034;-53
2023/04/23 06:39:29;;;;;;;116.25;56.75;;;10.00;99.90;;;;;;5173844;27;20067;-50
2023/04/23 06:41:56;;;;;;;101.60;50.60;;;9.90;99.90;;;;;;5174098;27;20098;-52
2023/04/23 06:44:22;;;;;;;110.10;53.63;;;10.00;99.90;;;;;;5133758;27;20041;-55
2023/04/23 06:46:48;;;;;;;101.13;52.05;;;10.20;99.90;;;;;;5162160;27;20022;-54
2023/04/23 06:49:14;;;;;;;100.90;50.63;;;10.10;99.90;;;;;;5174234;27;20042;-55
2023/04/23 06:51:40;;;;;;;99.18;51.17;;;10.10;99.90;;;;;;5157285;27;20050;-53
2023/04/23 06:54:06;;;;;;;98.95;49.85;;;10.20;99.90;;;;;;5132573;27;20035;-54
2023/04/23 06:56:31;;;;;;;105.53;51.22;;;10.20;99.90;;;;;;5150100;27;20048;-50
2023/04/23 06:58:57;;;;;;;93.20;52.40;;;10.20;99.90;;;;;;5140887;27;20030;-50
2023/04/23 07:01:23;;;;;;;95.32;50.83;;;10.20;99.90;;;;;;5172043;27;20031;-53
2023/04/23 07:03:50;;;;;;;98.03;51.65;;;10.30;99.90;;;;;;5172076;27;20033;-57
2023/04/23 07:06:16;;;;;;;97.50;50.90;;;10.40;99.90;;;;;;5173531;27;20362;-50
2023/04/23 07:08:43;;;;;;;104.03;52.90;;;10.30;99.90;;;;;;5172774;27;20122;-55
2023/04/23 07:11:09;;;;;;;103.80;52.65;;;10.40;99.90;;;;;;5144860;27;20053;-53
2023/04/23 07:13:35;;;;;;;90.72;48.50;;;10.40;99.90;;;;;;5130933;27;20027;-54
2023/04/23 07:16:01;;;;;;;96.78;51.10;;;10.60;99.90;;;;;;5148146;27;20060;-58
2023/04/23 07:18:27;;;;;;;87.50;50.42;;;10.60;99.90;;;;;;5163999;27;20022;-55
2023/04/23 07:20:52;;;;;;;94.53;49.45;;;10.50;99.90;;;;;;5135456;27;20056;-57
2023/04/23 07:23:18;;;;;;;85.30;47.58;;;10.70;99.90;;;;;;5143396;27;20041;-52
2023/04/23 07:25:44;;;;;;;83.47;46.95;;;10.70;99.90;;;;;;5133440;27;20039;-56
2023/04/23 07:28:09;;;;;;;82.70;46.80;;;10.70;99.90;;;;;;5158958;27;20050;-49
2023/04/23 07:30:35;;;;;;;88.30;49.28;;;10.70;99.90;;;;;;5144203;27;20827;-54
2023/04/23 07:33:01;;;;;;;86.05;47.58;;;10.80;99.90;;;;;;5147874;27;20062;-52
2023/04/23 07:35:26;;;;;;;83.32;46.20;;;10.80;99.90;;;;;;5166007;27;20042;-51
2023/04/23 07:37:54;;;;;;;81.85;46.42;;;10.90;99.90;;;;;;5153756;27;20034;-54
2023/04/23 07:40:24;;;;;;;74.00;44.78;;;11.00;99.90;;;;;;5164587;27;20101;-54
2023/04/23 07:42:51;;;;;;;76.13;44.15;;;11.00;99.90;;;;;;5156938;27;20038;-55
2023/04/23 07:45:17;;;;;;;74.97;42.03;;;11.30;99.90;;;;;;5155825;27;20038;-54
2023/04/23 07:47:44;;;;;;;69.25;42.17;;;11.30;99.90;;;;;;5153377;27;20072;-55
2023/04/23 07:50:10;;;;;;;66.28;39.75;;;11.40;99.90;;;;;;5142932;27;20114;-51
2023/04/23 07:52:36;;;;;;;66.63;41.22;;;11.50;99.90;;;;;;5133596;27;20110;-57
2023/04/23 07:55:02;;;;;;;71.25;42.15;;;11.50;99.90;;;;;;5162923;27;20047;-52
2023/04/23 07:57:27;;;;;;;69.32;41.53;;;11.60;99.90;;;;;;5160665;27;20030;-49
2023/04/23 07:59:54;;;;;;;59.28;37.55;;;11.70;99.90;;;;;;5152071;27;20401;-55
2023/04/23 08:02:24;;;;;;;57.20;38.28;;;11.80;99.90;;;;;;5161488;27;20191;-55
2023/04/23 08:04:50;;;;;;;61.40;37.80;;;11.70;99.90;;;;;;5168271;27;20038;-55
2023/04/23 08:07:16;;;;;;;56.00;36.45;;;11.80;99.90;;;;;;5171523;27;20117;-58
2023/04/23 08:09:42;;;;;;;58.90;37.33;;;11.90;99.90;;;;;;5169659;27;20206;-56
2023/04/23 08:12:07;;;;;;;54.15;33.78;;;12.00;99.90;;;;;;5152122;27;20034;-53
2023/04/23 08:14:33;;;;;;;49.58;32.00;;;12.10;99.90;;;;;;5161517;27;20073;-54
2023/04/23 08:16:59;;;;;;;50.25;30.15;;;12.10;99.90;;;;;;5169341;27;20030;-56
2023/04/23 08:19:25;;;;;;;51.38;30.75;;;12.20;99.90;;;;;;5170192;27;20034;-57
2023/04/23 08:21:51;;;;;;;45.85;30.63;;;12.30;99.90;;;;;;5168459;27;20049;-59
2023/04/23 08:24:17;;;;;;;42.00;28.60;;;12.30;99.90;;;;;;5136843;27;20034;-58
2023/04/23 08:26:42;;;;;;;39.03;25.75;;;12.50;99.90;;;;;;5169743;27;20393;-57
2023/04/23 08:29:08;;;;;;;36.17;24.70;;;12.50;99.90;;;;;;5171130;27;20533;-57
2023/04/23 08:31:34;;;;;;;42.40;25.70;;;12.60;99.90;;;;;;5170638;27;20030;-55
2023/04/23 08:34:00;;;;;;;39.92;24.38;;;12.70;99.90;;;;;;5170127;27;20481;-55
2023/04/23 08:36:26;;;;;;;35.97;22.65;;;12.80;99.90;;;;;;5171991;27;20042;-58
2023/04/23 08:38:52;;;;;;;35.25;22.02;;;12.80;99.90;;;;;;5157998;27;20077;-57
2023/04/23 08:41:21;;;;;;;38.78;23.02;;;12.90;99.90;;;;;;5172175;27;20050;-57
2023/04/23 08:43:51;;;;;;;37.90;21.40;;;13.00;99.90;;;;;;5168791;27;20042;-54
2023/04/23 08:46:18;;;;;;;27.90;22.42;;;13.00;99.90;;;;;;5168065;27;20552;-54
2023/04/23 08:48:44;;;;;;;32.72;21.75;;;13.10;99.90;;;;;;5167907;27;20035;-56
2023/04/23 08:51:16;;;;;;;27.67;22.20;;;13.20;99.90;;;;;;5163159;27;20057;-57
2023/04/23 08:53:44;;;;;;;31.67;20.15;;;13.30;99.90;;;;;;5120317;27;20044;-57
2023/04/23 08:56:12;;;;;;;27.38;19.95;;;13.40;99.90;;;;;;5170850;27;20038;-56
2023/04/23 08:58:40;;;;;;;29.45;21.63;;;13.60;99.90;;;;;;5157202;27;20053;-57
2023/04/23 09:01:06;;;;;;;30.40;21.20;;;13.70;99.90;;;;;;5137462;27;20137;-57
2023/04/23 09:03:33;;;;;;;23.80;15.07;;;13.80;99.90;;;;;;5168932;27;20078;-56
2023/04/23 09:05:59;;;;;;;29.70;19.42;;;13.90;99.90;;;;;;5170561;27;20038;-58
2023/04/23 09:08:25;;;;;;;21.85;16.88;;;14.00;99.90;;;;;;5165102;27;20030;-58
2023/04/23 09:10:54;;;;;;;20.38;15.63;;;14.10;99.90;;;;;;5152840;27;20043;-55
2023/04/23 09:13:21;;;;;;;22.85;17.70;;;14.20;99.90;;;;;;5159106;27;20480;-56
2023/04/23 09:15:47;;;;;;;27.98;19.08;;;14.30;99.90;;;;;;5170296;27;20492;-57
2023/04/23 09:18:13;;;;;;;25.45;18.75;;;14.40;99.90;;;;;;5168015;27;20077;-57
2023/04/23 09:20:39;;;;;;;23.40;18.25;;;14.70;99.90;;;;;;5121631;27;20038;-55
2023/04/23 09:23:07;;;;;;;23.35;18.58;;;14.50;99.90;;;;;;5170999;27;20038;-56
2023/04/23 09:25:33;;;;;;;22.30;16.05;;;14.60;99.90;;;;;;5169952;27;20039;-57
2023/04/23 09:28:02;;;;;;;21.65;16.23;;;14.70;99.90;;;;;;5156137;27;20026;-55
2023/04/23 09:30:28;;;;;;;20.00;17.13;;;14.90;99.90;;;;;;5160334;27;20042;-57
2023/04/23 09:32:53;;;;;;;20.45;15.40;;;15.10;99.90;;;;;;5167146;27;20038;-54
2023/04/23 09:35:19;;;;;;;22.02;16.20;;;15.20;99.90;;;;;;5165352;27;20612;-57
2023/04/23 09:37:47;;;;;;;22.60;17.23;;;15.20;99.90;;;;;;5163741;27;20042;-56
2023/04/23 09:40:18;;;;;;;20.10;13.75;;;15.20;99.90;;;;;;5171687;27;20042;-54
2023/04/23 09:42:51;;;;;;;21.80;16.08;;;15.40;99.90;;;;;;5139561;27;20047;-56
2023/04/23 09:45:18;;;;;;;19.63;13.85;;;15.50;99.90;;;;;;5170891;27;20083;-57
2023/04/23 09:47:53;;;;;;;17.02;13.18;;;15.70;99.90;;;;;;5138501;27;20047;-57
2023/04/23 09:50:33;;;;;;;17.88;14.05;;;15.80;99.90;;;;;;5170459;27;20477;-58
2023/04/23 09:52:59;;;;;;;21.13;15.02;;;15.80;99.90;;;;;;5137098;27;20512;-54
2023/04/23 09:55:36;;;;;;;18.33;13.95;;;15.70;99.90;;;;;;5170807;27;20034;-57
2023/04/23 09:58:03;;;;;;;17.08;12.95;;;15.70;99.90;;;;;;5168694;27;20093;-54
2023/04/23 10:00:33;;;;;;;19.35;12.27;;;15.70;99.90;;;;;;5160645;27;20041;-57
2023/04/23 10:02:59;;;;;;;18.83;12.20;;;15.80;99.90;;;;;;5167269;27;20070;-56
2023/04/23 10:05:26;;;;;;;17.02;11.30;;;15.90;99.90;;;;;;5169663;27;20381;-55
2023/04/23 10:07:52;;;;;;;13.38;9.80;;;15.80;99.90;;;;;;5168030;27;20049;-57
2023/04/23 10:10:19;;;;;;;14.20;9.00;;;15.80;99.90;;;;;;5164777;27;20030;-56
2023/04/23 10:12:45;;;;;;;12.20;8.63;;;15.80;99.90;;;;;;5170362;27;20026;-57
2023/04/23 10:15:12;;;;;;;10.27;6.85;;;15.90;99.90;;;;;;5169529;27;20045;-58
2023/04/23 10:17:39;;;;;;;12.30;6.95;;;16.00;99.90;;;;;;5169396;27;20109;-55
2023/04/23 10:20:07;;;;;;;9.32;6.22;;;15.90;99.90;;;;;;5166907;27;20038;-56
2023/04/23 10:22:34;;;;;;;11.65;6.88;;;15.90;99.90;;;;;;5168436;27;20030;-58
2023/04/23 10:25:08;;;;;;;12.25;6.85;;;15.90;99.90;;;;;;5171314;27;20038;-58
2023/04/23 10:27:39;;;;;;;10.52;6.47;;;15.90;99.90;;;;;;5161585;27;20038;-57
2023/04/23 10:30:06;;;;;;;9.32;5.97;;;16.00;99.90;;;;;;5168401;27;20120;-56
2023/04/23 10:32:33;;;;;;;9.05;5.05;;;16.10;99.90;;;;;;5166656;27;20126;-54
2023/04/23 10:34:59;;;;;;;11.05;5.90;;;16.30;99.90;;;;;;5170944;27;20274;-56
2023/04/23 10:37:25;;;;;;;9.18;6.05;;;16.40;99.90;;;;;;5134797;27;20045;-57
2023/04/23 10:39:54;;;;;;;9.00;5.82;;;16.40;99.90;;;;;;5132962;27;20369;-55
2023/04/23 10:42:21;;;;;;;10.18;5.93;;;16.40;99.90;;;;;;5169159;27;20091;-54
2023/04/23 10:44:47;;;;;;;9.13;5.28;;;16.40;99.90;;;;;;5168014;27;20038;-56
2023/04/23 10:47:16;;;;;;;10.55;5.65;;;16.40;99.90;;;;;;5169604;27;20113;-55
2023/04/23 10:49:43;;;;;;;10.05;6.45;;;16.50;99.90;;;;;;5165842;27;20079;-56
2023/04/23 10:52:14;;;;;;;9.52;6.50;;;16.60;99.90;;;;;;5168705;27;20434;-57
2023/04/23 10:54:41;;;;;;;12.40;6.28;;;16.50;99.90;;;;;;5169607;27;20038;-54
2023/04/23 10:57:08;;;;;;;9.32;5.80;;;16.30;99.90;;;;;;5138125;27;20030;-53
2023/04/23 10:59:38;;;;;;;10.25;5.68;;;16.20;99.90;;;;;;5167853;27;20035;-54
2023/04/23 11:02:09;;;;;;;10.82;5.40;;;16.10;99.90;;;;;;5167140;27;20377;-58
2023/04/23 11:04:40;;;;;;;9.55;5.55;;;16.00;99.90;;;;;;5166363;27;20477;-59
2023/04/23 11:07:10;;;;;;;9.68;5.68;;;16.10;99.90;;;;;;5132542;27;20043;-55
2023/04/23 11:09:37;;;;;;;7.40;4.32;;;16.30;99.90;;;;;;5168592;27;20042;-56
2023/04/23 11:12:10;;;;;;;8.77;4.63;;;16.40;99.90;;;;;;5162489;27;20045;-56
2023/04/23 11:14:44;;;;;;;9.85;4.50;;;16.40;99.90;;;;;;5165727;27;20155;-55
2023/04/23 11:17:15;;;;;;;8.07;3.97;;;16.40;99.90;;;;;;5168974;27;20062;-58
2023/04/23 11:20:01;;;;;;;10.98;4.95;;;16.40;99.90;;;;;;5168360;27;20036;-57
2023/04/23 11:22:35;;;;;;;7.65;2.88;;;16.60;99.90;;;;;;5159832;27;20393;-58
2023/04/23 11:25:01;;;;;;;7.47;2.47;;;16.80;99.90;;;;;;5137673;27;20139;-53
2023/04/23 11:27:29;;;;;;;8.25;2.30;;;17.00;99.90;;;;;;5134709;27;20490;-57
2023/04/23 11:29:56;;;;;;;8.23;1.90;;;17.30;99.90;;;;;;5171847;27;20069;-58
2023/04/23 11:32:23;;;;;;;7.32;1.58;;;17.70;99.90;;;;;;5172350;27;20508;-56
2023/04/23 11:34:50;;;;;;;8.30;1.85;;;17.90;99.90;;;;;;5172305;27;20113;-58
2023/04/23 11:37:17;;;;;;;6.18;1.33;;;18.10;99.90;;;;;;5173493;27;20091;-56
2023/04/23 11:39:44;;;;;;;8.65;1.23;;;18.40;99.90;;;;;;5132662;27;20039;-54
2023/04/23 11:42:11;;;;;;;50.38;29.13;;;18.50;99.90;;;;;;5156370;27;20062;-55
2023/04/23 11:44:42;;;;;;;7.68;2.05;;;18.40;99.90;;;;;;5173191;27;20038;-56
2023/04/23 11:47:10;;;;;;;10.25;2.10;;;18.30;99.90;;;;;;5140822;27;20039;-53
2023/04/23 11:49:37;;;;;;;7.47;1.40;;;18.10;99.90;;;;;;5142661;27;20043;-59
2023/04/23 11:52:03;;;;;;;8.30;1.85;;;18.00;99.90;;;;;;5166077;27;20039;-58
2023/04/23 11:54:29;;;;;;;6.53;1.65;;;17.90;99.90;;;;;;5173431;27;20034;-56
2023/04/23 11:56:56;;;;;;;6.40;1.70;;;17.70;99.90;;;;;;5172050;27;20030;-58
2023/04/23 11:59:22;;;;;;;5.57;1.50;;;17.70;99.90;;;;;;5172716;27;20430;-56
2023/04/23 12:01:54;;;;;;;4.78;1.75;;;17.70;99.90;;;;;;5171038;27;20473;-53
2023/04/23 12:04:22;;;;;;;10.45;2.33;;;17.70;99.90;;;;;;5172555;27;20049;-56
2023/04/23 12:06:49;;;;;;;6.38;1.40;;;17.80;99.90;;;;;;5172407;27;20031;-53
2023/04/23 12:09:16;;;;;;;5.22;1.45;;;17.90;99.90;;;;;;5173321;27;20055;-56
2023/04/23 12:11:43;;;;;;;8.85;1.83;;;18.00;99.90;;;;;;5172506;27;20041;-57
2023/04/23 12:14:10;;;;;;;6.22;1.90;;;18.00;99.90;;;;;;5172530;27;20502;-56
2023/04/23 12:16:44;;;;;;;9.48;3.70;;;18.00;99.90;;;;;;5172322;27;20481;-57
2023/04/23 12:19:24;;;;;;;5.97;1.30;;;18.10;99.90;;;;;;5171693;27;20078;-58
2023/04/23 12:21:54;;;;;;;6.03;1.70;;;18.10;99.90;;;;;;5170852;27;20121;-55
2023/04/23 12:24:25;;;;;;;7.70;1.50;;;18.20;99.90;;;;;;5165280;27;20582;-56
2023/04/23 12:26:59;;;;;;;6.90;1.58;;;18.20;99.90;;;;;;5159061;27;20035;-54
2023/04/23 12:29:28;;;;;;;6.05;1.20;;;18.30;99.90;;;;;;5147667;27;20476;-57